Time;durP1;ratioP1;P1;durP2;ratioP2;P2;SDS_P1;SDS_P2;PMS_P1;PMS_P2;Temp;Humidity;BMP_temperature;BMP_pressure;BME280_temperature;BME280_humidity;BME280_pressure;Samples;Min_cycle;Max_cycle;Signal;HPM_P1;HPM_P2
2021/03/20 00:01:20;;;;;;;12.20;10.47;;;;;;;;;;5087406;27;20229;-77
2021/03/20 00:03:48;;;;;;;14.13;11.33;;;;;;;;;;5088469;27;20750;-78
2021/03/20 00:06:18;;;;;;;12.83;10.17;;;;;;;;;;5085910;27;20226;-78
2021/03/20 00:08:46;;;;;;;13.73;11.33;;;;;;;;;;5088984;27;20228;-78
2021/03/20 00:11:14;;;;;;;16.50;11.63;;;;;;;;;;5108553;27;20234;-78
2021/03/20 00:13:42;;;;;;;13.53;11.07;;;;;;;;;;5119220;27;20228;-78
2021/03/20 00:16:10;;;;;;;13.40;11.30;;;;;;;;;;5104625;27;20234;-78
2021/03/20 00:18:39;;;;;;;16.00;12.30;;;;;;;;;;5087234;27;20226;-78
2021/03/20 00:21:07;;;;;;;14.93;12.30;;;;;;;;;;5103179;27;20239;-77
2021/03/20 00:23:35;;;;;;;14.73;12.23;;;;;;;;;;5078244;28;20231;-77
2021/03/20 00:26:03;;;;;;;16.93;11.73;;;;;;;;;;5107886;27;20223;-78
2021/03/20 00:28:31;;;;;;;12.77;11.20;;;;;;;;;;5073070;28;20232;-78
2021/03/20 00:31:02;;;;;;;12.93;11.60;;;;;;;;;;5087856;27;20233;-77
2021/03/20 00:33:30;;;;;;;13.90;11.83;;;;;;;;;;5090547;27;20708;-78
2021/03/20 00:36:00;;;;;;;14.13;12.33;;;;;;;;;;5078815;27;20232;-78
2021/03/20 00:38:28;;;;;;;16.27;13.10;;;;;;;;;;5088572;28;20236;-77
2021/03/20 00:40:57;;;;;;;14.87;13.03;;;;;;;;;;5090067;27;20224;-77
2021/03/20 00:43:25;;;;;;;15.60;12.47;;;;;;;;;;5090336;27;20714;-78
2021/03/20 00:45:53;;;;;;;15.13;13.13;;;;;;;;;;5078531;27;20253;-78
2021/03/20 00:48:22;;;;;;;14.47;12.57;;;;;;;;;;5100322;27;20433;-78
2021/03/20 00:50:50;;;;;;;15.50;12.80;;;;;;;;;;5100477;27;20233;-78
2021/03/20 00:53:23;;;;;;;15.93;13.03;;;;;;;;;;5081839;28;20735;-77
2021/03/20 00:55:51;;;;;;;16.43;13.60;;;;;;;;;;5084008;27;20240;-77
2021/03/20 00:58:24;;;;;;;15.63;12.87;;;;;;;;;;5104373;27;20232;-77
2021/03/20 01:00:53;;;;;;;14.60;11.93;;;;;;;;;;5088737;27;20701;-78
2021/03/20 01:03:21;;;;;;;15.43;12.20;;;;;;;;;;5094779;27;20238;-77
2021/03/20 01:05:49;;;;;;;16.00;13.13;;;;;;;;;;5086995;27;20235;-78
2021/03/20 01:08:17;;;;;;;15.70;12.30;;;;;;;;;;5091567;28;20231;-78
2021/03/20 01:10:46;;;;;;;15.57;12.13;;;;;;;;;;5070872;27;20220;-78
2021/03/20 01:13:14;;;;;;;16.33;12.77;;;;;;;;;;5104215;27;20229;-78
2021/03/20 01:15:42;;;;;;;16.07;12.70;;;;;;;;;;5090081;27;20231;-78
2021/03/20 01:18:11;;;;;;;15.60;11.47;;;;;;;;;;5073839;28;20224;-78
2021/03/20 01:20:39;;;;;;;16.83;11.83;;;;;;;;;;5088588;28;20232;-77
2021/03/20 01:23:07;;;;;;;13.07;10.50;;;;;;;;;;5072207;28;20233;-78
2021/03/20 01:25:34;;;;;;;13.73;10.80;;;;;;;;;;5070426;28;20230;-78
2021/03/20 01:28:03;;;;;;;14.87;11.53;;;;;;;;;;5089666;27;20553;-77
2021/03/20 01:30:33;;;;;;;14.07;10.80;;;;;;;;;;5092290;27;20338;-77
2021/03/20 01:33:00;;;;;;;15.00;11.73;;;;;;;;;;5092852;27;20230;-76
2021/03/20 01:35:28;;;;;;;13.97;11.30;;;;;;;;;;5115599;27;20643;-76
2021/03/20 01:37:56;;;;;;;12.70;10.03;;;;;;;;;;5097829;27;20236;-76
2021/03/20 01:40:25;;;;;;;14.37;11.17;;;;;;;;;;5076896;28;20227;-77
2021/03/20 01:42:53;;;;;;;12.53;10.17;;;;;;;;;;5086507;27;20229;-77
2021/03/20 01:45:25;;;;;;;14.50;11.03;;;;;;;;;;5080056;28;20219;-77
2021/03/20 01:48:01;;;;;;;13.37;10.10;;;;;;;;;;5096926;27;20704;-77
2021/03/20 01:50:34;;;;;;;14.63;10.23;;;;;;;;;;5085293;28;20227;-76
2021/03/20 01:53:08;;;;;;;14.00;10.73;;;;;;;;;;5094297;27;20227;-77
2021/03/20 01:55:36;;;;;;;14.47;10.47;;;;;;;;;;5086487;27;20309;-77
2021/03/20 01:58:04;;;;;;;13.03;10.33;;;;;;;;;;5080695;28;20222;-77
2021/03/20 02:00:35;;;;;;;15.30;10.87;;;;;;;;;;5093262;27;20637;-77
2021/03/20 02:03:04;;;;;;;15.60;10.87;;;;;;;;;;5110411;27;20219;-77
2021/03/20 02:05:32;;;;;;;12.90;10.97;;;;;;;;;;5085929;28;20233;-77
2021/03/20 02:08:03;;;;;;;13.27;10.43;;;;;;;;;;5087165;27;20235;-77
2021/03/20 02:10:32;;;;;;;14.73;11.37;;;;;;;;;;5097246;27;20705;-77
2021/03/20 02:13:05;;;;;;;15.50;11.47;;;;;;;;;;5085670;27;20232;-77
2021/03/20 02:15:37;;;;;;;13.67;10.93;;;;;;;;;;5078950;28;20420;-77
2021/03/20 02:18:13;;;;;;;13.50;10.20;;;;;;;;;;5093542;28;20239;-78
2021/03/20 02:21:07;;;;;;;13.63;10.63;;;;;;;;;;5101956;27;20233;-78
2021/03/20 02:24:12;;;;;;;14.27;10.90;;;;;;;;;;5074086;28;20239;-77
2021/03/20 02:26:57;;;;;;;14.13;11.27;;;;;;;;;;5078057;28;20244;-78
2021/03/20 02:29:51;;;;;;;16.97;11.63;;;;;;;;;;5079438;28;20215;-76
2021/03/20 02:32:51;;;;;;;14.30;11.33;;;;;;;;;;5093381;28;20230;-77
2021/03/20 02:35:27;;;;;;;15.47;11.13;;;;;;;;;;5049412;28;20233;-77
2021/03/20 02:38:03;;;;;;;14.23;11.03;;;;;;;;;;5115340;27;20226;-77
2021/03/20 02:40:41;;;;;;;17.03;12.00;;;;;;;;;;5091042;28;20223;-77
2021/03/20 02:43:14;;;;;;;15.03;11.10;;;;;;;;;;5114355;28;20226;-77
2021/03/20 02:45:44;;;;;;;14.17;11.60;;;;;;;;;;5100652;28;20404;-77
2021/03/20 02:48:18;;;;;;;14.90;12.00;;;;;;;;;;5097199;27;20227;-77
2021/03/20 02:50:50;;;;;;;13.57;11.07;;;;;;;;;;5077099;27;20215;-77
2021/03/20 02:53:22;;;;;;;14.83;11.73;;;;;;;;;;5088872;28;20224;-77
2021/03/20 02:55:53;;;;;;;14.93;11.27;;;;;;;;;;5077774;28;20230;-77
2021/03/20 02:58:23;;;;;;;15.43;11.57;;;;;;;;;;5095082;28;20226;-76
2021/03/20 03:00:53;;;;;;;15.00;11.97;;;;;;;;;;5083101;28;20246;-77
2021/03/20 03:03:24;;;;;;;15.37;11.97;;;;;;;;;;5098404;27;20225;-77
2021/03/20 03:05:56;;;;;;;15.50;10.70;;;;;;;;;;5104484;27;20243;-76
2021/03/20 03:08:27;;;;;;;14.23;11.70;;;;;;;;;;5113585;28;20222;-77
2021/03/20 03:11:03;;;;;;;15.03;11.97;;;;;;;;;;5100381;28;20230;-77
2021/03/20 03:13:34;;;;;;;15.07;11.47;;;;;;;;;;5120818;28;20216;-77
2021/03/20 03:16:05;;;;;;;14.30;11.17;;;;;;;;;;5113386;28;20723;-77
2021/03/20 03:18:38;;;;;;;16.03;11.60;;;;;;;;;;5117414;27;20219;-76
2021/03/20 03:21:07;;;;;;;15.83;11.83;;;;;;;;;;5094437;28;20238;-77
2021/03/20 03:23:37;;;;;;;15.07;11.60;;;;;;;;;;5090359;28;20230;-78
2021/03/20 03:26:09;;;;;;;16.57;12.37;;;;;;;;;;5092011;28;20613;-77
2021/03/20 03:28:38;;;;;;;14.80;11.13;;;;;;;;;;5092896;28;20226;-78
2021/03/20 03:31:11;;;;;;;17.13;11.90;;;;;;;;;;5100228;28;20241;-77
2021/03/20 03:33:43;;;;;;;14.63;11.63;;;;;;;;;;5094358;28;20233;-78
2021/03/20 03:36:13;;;;;;;16.23;12.43;;;;;;;;;;5117489;27;20253;-78
2021/03/20 03:38:44;;;;;;;16.67;12.10;;;;;;;;;;5094150;27;20222;-78
2021/03/20 03:41:23;;;;;;;17.00;12.17;;;;;;;;;;5109512;28;20237;-77
2021/03/20 03:43:51;;;;;;;17.60;12.33;;;;;;;;;;5087357;28;20227;-78
2021/03/20 03:46:21;;;;;;;18.93;12.57;;;;;;;;;;5101634;28;20216;-78
2021/03/20 03:48:53;;;;;;;14.60;11.27;;;;;;;;;;5102988;27;20225;-77
2021/03/20 03:51:21;;;;;;;16.03;11.87;;;;;;;;;;5094867;28;20233;-77
2021/03/20 03:53:49;;;;;;;16.13;11.57;;;;;;;;;;5092144;27;20230;-77
2021/03/20 03:56:28;;;;;;;17.13;11.87;;;;;;;;;;5109914;27;20229;-77
2021/03/20 03:59:03;;;;;;;18.47;12.47;;;;;;;;;;5115505;27;20228;-77
2021/03/20 04:01:39;;;;;;;15.90;12.07;;;;;;;;;;5122460;27;20240;-77
2021/03/20 04:04:15;;;;;;;15.93;12.17;;;;;;;;;;5128205;27;20321;-77
2021/03/20 04:06:52;;;;;;;15.13;11.70;;;;;;;;;;5088392;28;20238;-78
2021/03/20 04:09:31;;;;;;;16.10;11.03;;;;;;;;;;5081209;28;20225;-78
2021/03/20 04:12:04;;;;;;;16.13;11.93;;;;;;;;;;5102551;27;21459;-77
2021/03/20 04:14:37;;;;;;;15.90;12.00;;;;;;;;;;5085872;28;20597;-78
2021/03/20 04:17:08;;;;;;;16.67;12.67;;;;;;;;;;5103225;27;20221;-78
2021/03/20 04:19:43;;;;;;;15.77;12.13;;;;;;;;;;5074989;28;20234;-77
2021/03/20 04:22:15;;;;;;;14.73;12.17;;;;;;;;;;5081721;28;20236;-78
2021/03/20 04:24:45;;;;;;;16.30;12.87;;;;;;;;;;5097619;27;20237;-78
2021/03/20 04:27:14;;;;;;;15.70;12.17;;;;;;;;;;5103705;27;20240;-78
2021/03/20 04:29:45;;;;;;;16.67;12.10;;;;;;;;;;5079534;27;20311;-78
2021/03/20 04:32:16;;;;;;;16.23;12.57;;;;;;;;;;5105937;27;20213;-78
2021/03/20 04:34:46;;;;;;;16.17;12.60;;;;;;;;;;5125954;27;20202;-78
2021/03/20 04:37:17;;;;;;;17.43;12.63;;;;;;;;;;5112312;28;20230;-78
2021/03/20 04:39:47;;;;;;;16.17;12.47;;;;;;;;;;5114293;27;20419;-78
2021/03/20 04:42:22;;;;;;;19.23;12.97;;;;;;;;;;5085442;28;20601;-78
2021/03/20 04:44:51;;;;;;;17.47;12.80;;;;;;;;;;5079880;27;20232;-78
2021/03/20 04:47:23;;;;;;;19.07;13.17;;;;;;;;;;5084310;28;20234;-78
2021/03/20 04:49:56;;;;;;;17.30;12.80;;;;;;;;;;5097520;27;20636;-78
2021/03/20 04:52:27;;;;;;;17.23;12.27;;;;;;;;;;5093122;28;20230;-78
2021/03/20 04:54:56;;;;;;;16.70;12.93;;;;;;;;;;5085043;28;20241;-78
2021/03/20 04:57:27;;;;;;;16.67;12.60;;;;;;;;;;5073160;28;20249;-77
2021/03/20 05:00:05;;;;;;;17.70;12.93;;;;;;;;;;5064465;28;20364;-77
2021/03/20 05:02:34;;;;;;;16.67;12.30;;;;;;;;;;5058763;28;20226;-78
2021/03/20 05:05:08;;;;;;;17.33;12.67;;;;;;;;;;5073150;28;20223;-78
2021/03/20 05:07:36;;;;;;;16.20;11.73;;;;;;;;;;5076665;28;20727;-77
2021/03/20 05:10:08;;;;;;;14.83;11.93;;;;;;;;;;5068667;28;20234;-78
2021/03/20 05:12:36;;;;;;;15.83;11.80;;;;;;;;;;5065708;28;20231;-77
2021/03/20 05:15:14;;;;;;;15.97;11.30;;;;;;;;;;5067499;28;20227;-78
2021/03/20 05:17:42;;;;;;;16.07;11.67;;;;;;;;;;5093372;27;20594;-78
2021/03/20 05:20:11;;;;;;;13.63;10.43;;;;;;;;;;5087701;27;20252;-77
2021/03/20 05:22:39;;;;;;;16.57;10.80;;;;;;;;;;5092802;27;20700;-78
2021/03/20 05:25:08;;;;;;;14.80;10.40;;;;;;;;;;5070156;28;20223;-78
2021/03/20 05:27:36;;;;;;;15.27;11.00;;;;;;;;;;5079319;28;20218;-78
2021/03/20 05:30:06;;;;;;;15.70;10.70;;;;;;;;;;5109901;27;20226;-78
2021/03/20 05:32:35;;;;;;;15.80;11.90;;;;;;;;;;5128272;27;20236;-78
2021/03/20 05:35:06;;;;;;;16.07;11.53;;;;;;;;;;5091489;27;20228;-77
2021/03/20 05:37:39;;;;;;;15.27;11.03;;;;;;;;;;5094371;27;20230;-79
2021/03/20 05:40:19;;;;;;;15.70;11.37;;;;;;;;;;5088367;28;20228;-78
2021/03/20 05:43:19;;;;;;;17.50;11.80;;;;;;;;;;5082657;28;20295;-78
2021/03/20 05:45:56;;;;;;;16.33;11.03;;;;;;;;;;5079227;27;20253;-78
2021/03/20 05:48:28;;;;;;;15.93;10.53;;;;;;;;;;5086678;27;20226;-78
2021/03/20 05:51:06;;;;;;;16.33;11.23;;;;;;;;;;5079725;27;20727;-78
2021/03/20 05:54:14;;;;;;;14.37;10.63;;;;;;;;;;5099445;28;20225;-78
2021/03/20 05:56:53;;;;;;;17.43;11.30;;;;;;;;;;5005381;28;20232;-79
2021/03/20 05:59:24;;;;;;;14.07;10.67;;;;;;;;;;5015872;28;20884;-78
2021/03/20 06:02:00;;;;;;;13.63;10.57;;;;;;;;;;5039847;28;20232;-78
2021/03/20 06:04:32;;;;;;;14.47;10.77;;;;;;;;;;5079323;28;20218;-78
2021/03/20 06:07:42;;;;;;;17.17;11.60;;;;;;;;;;5083235;28;20735;-78
2021/03/20 06:10:24;;;;;;;16.00;11.03;;;;;;;;;;5087086;27;20232;-78
2021/03/20 06:13:02;;;;;;;14.57;10.00;;;;;;;;;;5081217;28;20220;-77
2021/03/20 06:15:42;;;;;;;15.17;11.13;;;;;;;;;;5101486;28;20235;-78
2021/03/20 06:18:27;;;;;;;15.00;11.47;;;;;;;;;;5090187;28;20238;-77
2021/03/20 06:20:58;;;;;;;15.33;11.00;;;;;;;;;;5086445;27;20239;-77
2021/03/20 06:23:41;;;;;;;14.33;10.03;;;;;;;;;;5095998;28;20215;-77
2021/03/20 06:26:14;;;;;;;17.13;11.20;;;;;;;;;;5089350;28;20228;-77
2021/03/20 06:28:45;;;;;;;15.30;10.67;;;;;;;;;;5093356;27;20223;-78
2021/03/20 06:31:19;;;;;;;14.50;11.30;;;;;;;;;;5081029;28;20231;-76
2021/03/20 06:33:51;;;;;;;15.07;10.80;;;;;;;;;;5081795;27;20224;-77
2021/03/20 06:36:25;;;;;;;14.30;10.93;;;;;;;;;;5107125;27;20607;-77
2021/03/20 06:39:05;;;;;;;14.00;10.67;;;;;;;;;;5096037;27;20226;-78
2021/03/20 06:41:39;;;;;;;13.17;10.03;;;;;;;;;;5089425;28;20233;-76
2021/03/20 06:44:31;;;;;;;14.20;10.57;;;;;;;;;;5089950;28;20218;-78
2021/03/20 06:46:59;;;;;;;13.53;10.53;;;;;;;;;;5122676;27;20224;-78
2021/03/20 06:49:31;;;;;;;16.17;11.13;;;;;;;;;;5104978;27;20702;-78
2021/03/20 06:52:01;;;;;;;14.93;11.27;;;;;;;;;;5113753;27;20224;-78
2021/03/20 06:54:29;;;;;;;12.50;10.27;;;;;;;;;;5108069;27;20228;-77
2021/03/20 06:56:58;;;;;;;13.53;9.83;;;;;;;;;;5071893;27;20225;-77
2021/03/20 06:59:26;;;;;;;14.80;11.20;;;;;;;;;;5082920;28;20237;-76
2021/03/20 07:01:59;;;;;;;13.77;10.33;;;;;;;;;;5083271;27;20230;-76
2021/03/20 07:04:51;;;;;;;16.70;11.00;;;;;;;;;;5094038;27;20220;-77
2021/03/20 07:07:29;;;;;;;14.47;11.07;;;;;;;;;;5117712;27;20225;-79
2021/03/20 07:09:57;;;;;;;12.43;10.00;;;;;;;;;;5129821;27;20232;-79
2021/03/20 07:12:26;;;;;;;14.23;10.43;;;;;;;;;;5083551;28;20221;-79
2021/03/20 07:14:55;;;;;;;13.83;10.40;;;;;;;;;;5084704;27;20243;-78
2021/03/20 07:17:37;;;;;;;16.40;11.33;;;;;;;;;;5098880;27;20235;-77
2021/03/20 07:20:09;;;;;;;15.93;11.00;;;;;;;;;;5102592;27;20731;-77
2021/03/20 07:22:38;;;;;;;16.10;10.27;;;;;;;;;;5086882;28;20242;-77
2021/03/20 07:25:24;;;;;;;11.57;9.33;;;;;;;;;;5122035;27;20232;-77
2021/03/20 07:27:55;;;;;;;15.33;10.63;;;;;;;;;;5090122;27;20233;-79
2021/03/20 07:30:32;;;;;;;15.03;9.93;;;;;;;;;;5094562;27;20246;-78
2021/03/20 07:32:59;;;;;;;11.17;9.17;;;;;;;;;;5095410;27;20243;-78
2021/03/20 07:35:33;;;;;;;12.57;9.53;;;;;;;;;;5104590;27;20236;-78
2021/03/20 07:38:19;;;;;;;14.67;10.73;;;;;;;;;;5087890;27;20229;-78
2021/03/20 07:40:48;;;;;;;14.90;10.33;;;;;;;;;;5085783;27;20226;-78
2021/03/20 07:43:19;;;;;;;11.87;9.97;;;;;;;;;;5129766;27;20947;-78
2021/03/20 07:45:49;;;;;;;12.43;10.13;;;;;;;;;;5119026;27;20212;-78
2021/03/20 07:48:22;;;;;;;15.37;11.23;;;;;;;;;;5103002;28;20224;-77
2021/03/20 07:51:01;;;;;;;12.93;9.90;;;;;;;;;;5111917;27;20235;-77
2021/03/20 07:53:29;;;;;;;14.20;10.27;;;;;;;;;;5098780;28;20230;-78
2021/03/20 07:56:04;;;;;;;11.83;9.53;;;;;;;;;;5092938;27;20220;-78
2021/03/20 07:58:44;;;;;;;12.37;9.43;;;;;;;;;;5093357;28;20235;-77
2021/03/20 08:01:15;;;;;;;11.70;9.57;;;;;;;;;;5079176;28;20239;-77
2021/03/20 08:03:50;;;;;;;12.87;9.87;;;;;;;;;;5092089;27;20715;-78
2021/03/20 08:06:21;;;;;;;12.13;9.93;;;;;;;;;;5124828;27;20231;-77
2021/03/20 08:08:49;;;;;;;11.17;9.07;;;;;;;;;;5119717;27;20239;-78
2021/03/20 08:11:29;;;;;;;14.40;10.37;;;;;;;;;;5114496;27;20229;-78
2021/03/20 08:14:02;;;;;;;13.10;9.40;;;;;;;;;;5104677;27;20221;-78
2021/03/20 08:16:29;;;;;;;11.47;9.40;;;;;;;;;;5103112;27;20230;-77
2021/03/20 08:18:58;;;;;;;11.40;9.33;;;;;;;;;;5103009;27;20237;-77
2021/03/20 08:21:39;;;;;;;10.93;9.00;;;;;;;;;;5099687;28;20228;-77
2021/03/20 08:24:46;;;;;;;10.90;9.53;;;;;;;;;;5099715;28;20233;-78
2021/03/20 08:27:22;;;;;;;11.43;8.73;;;;;;;;;;5061937;28;20228;-78
2021/03/20 08:30:16;;;;;;;11.27;8.83;;;;;;;;;;5097267;27;20228;-77
2021/03/20 08:32:53;;;;;;;11.93;8.93;;;;;;;;;;5113803;27;20225;-79
2021/03/20 08:35:26;;;;;;;12.70;9.47;;;;;;;;;;5119378;28;23587;-78
2021/03/20 08:38:15;;;;;;;10.20;8.33;;;;;;;;;;5118714;27;20209;-79
2021/03/20 08:40:50;;;;;;;10.53;8.13;;;;;;;;;;5109306;27;20243;-78
2021/03/20 08:43:49;;;;;;;9.73;7.70;;;;;;;;;;5126760;28;20212;-79
2021/03/20 08:46:36;;;;;;;10.93;7.53;;;;;;;;;;5102205;28;20240;-77
2021/03/20 08:49:11;;;;;;;23.60;14.67;;;;;;;;;;5105198;27;20217;-76
2021/03/20 08:51:43;;;;;;;11.90;8.90;;;;;;;;;;5097849;28;20232;-77
2021/03/20 08:54:30;;;;;;;24.97;19.63;;;;;;;;;;5085331;28;20715;-77
2021/03/20 08:57:05;;;;;;;7.20;6.37;;;;;;;;;;5100665;27;20239;-78
2021/03/20 08:59:35;;;;;;;9.00;6.70;;;;;;;;;;5110610;28;20231;-78
2021/03/20 09:02:17;;;;;;;6.80;5.77;;;;;;;;;;5120605;27;20225;-78
2021/03/20 09:04:45;;;;;;;7.40;6.07;;;;;;;;;;5101870;28;20621;-79
2021/03/20 09:07:20;;;;;;;7.80;5.80;;;;;;;;;;5116159;27;20679;-78
2021/03/20 09:09:51;;;;;;;7.80;6.43;;;;;;;;;;5083679;28;20713;-79
2021/03/20 09:12:22;;;;;;;7.43;5.87;;;;;;;;;;5088411;28;20228;-78
2021/03/20 09:14:51;;;;;;;7.73;6.23;;;;;;;;;;5080128;27;20236;-77
2021/03/20 09:17:21;;;;;;;6.73;5.20;;;;;;;;;;5084685;28;20218;-78
2021/03/20 09:19:52;;;;;;;11.17;7.50;;;;;;;;;;5102682;27;20222;-77
2021/03/20 09:22:22;;;;;;;5.73;4.47;;;;;;;;;;5076671;27;20609;-78
2021/03/20 09:24:53;;;;;;;6.77;4.90;;;;;;;;;;5086438;27;20210;-78
2021/03/20 09:27:58;;;;;;;7.37;4.47;;;;;;;;;;5090329;27;20234;-78
2021/03/20 09:30:29;;;;;;;5.43;3.93;;;;;;;;;;5084403;28;20225;-79
2021/03/20 09:32:59;;;;;;;6.20;4.10;;;;;;;;;;5105719;27;20232;-78
2021/03/20 09:35:38;;;;;;;6.33;4.07;;;;;;;;;;5091140;27;20233;-79
2021/03/20 09:38:06;;;;;;;6.73;4.90;;;;;;;;;;5075446;28;20222;-78
2021/03/20 09:40:48;;;;;;;7.90;4.87;;;;;;;;;;5089090;28;20726;-78
2021/03/20 09:43:40;;;;;;;13.63;9.23;;;;;;;;;;5101971;27;20751;-78
2021/03/20 09:46:47;;;;;;;7.33;5.27;;;;;;;;;;5092671;28;20320;-79
2021/03/20 09:52:51;;;;;;;8.83;4.33;;;;;;;;;;5080434;27;20217;-78
2021/03/20 09:55:41;;;;;;;5.17;4.03;;;;;;;;;;5091787;27;20237;-78
2021/03/20 09:58:39;;;;;;;6.37;4.83;;;;;;;;;;5095025;27;20226;-79
2021/03/20 10:01:17;;;;;;;5.90;3.97;;;;;;;;;;5082008;28;20237;-79
2021/03/20 10:04:20;;;;;;;5.17;4.10;;;;;;;;;;5101162;27;20220;-77
2021/03/20 10:07:15;;;;;;;6.57;4.50;;;;;;;;;;5089620;27;20225;-78
2021/03/20 10:09:55;;;;;;;7.97;4.47;;;;;;;;;;5111665;27;20229;-78
2021/03/20 10:12:31;;;;;;;6.87;4.00;;;;;;;;;;5081912;28;20221;-78
2021/03/20 10:15:23;;;;;;;6.73;4.10;;;;;;;;;;5082973;27;20230;-78
2021/03/20 10:18:04;;;;;;;6.20;4.30;;;;;;;;;;5104230;27;20226;-78
2021/03/20 10:20:41;;;;;;;6.53;4.63;;;;;;;;;;5103482;27;20646;-78
2021/03/20 10:23:19;;;;;;;8.80;5.47;;;;;;;;;;5087548;28;20233;-77
2021/03/20 10:25:50;;;;;;;7.70;5.60;;;;;;;;;;5105577;27;20733;-78
2021/03/20 10:28:19;;;;;;;7.70;5.13;;;;;;;;;;5095124;27;20714;-77
2021/03/20 10:30:57;;;;;;;7.03;5.40;;;;;;;;;;5095431;27;20240;-77
2021/03/20 10:33:28;;;;;;;5.03;3.93;;;;;;;;;;5080401;27;20875;-78
2021/03/20 10:36:08;;;;;;;5.27;4.70;;;;;;;;;;5082151;27;20243;-77
2021/03/20 10:38:36;;;;;;;4.60;4.07;;;;;;;;;;5090250;27;20245;-80
2021/03/20 10:41:07;;;;;;;6.20;4.63;;;;;;;;;;5101620;27;20218;-81
2021/03/20 10:43:40;;;;;;;4.47;4.07;;;;;;;;;;5093053;28;20229;-79
2021/03/20 10:46:08;;;;;;;4.70;4.10;;;;;;;;;;5097241;27;20234;-80
2021/03/20 10:48:35;;;;;;;5.00;3.73;;;;;;;;;;5093382;28;20252;-79
2021/03/20 10:51:06;;;;;;;4.33;3.80;;;;;;;;;;5073726;28;20214;-78
2021/03/20 10:53:36;;;;;;;5.47;4.60;;;;;;;;;;5084449;28;20247;-79
2021/03/20 10:56:05;;;;;;;4.57;4.17;;;;;;;;;;5086833;27;20229;-79
2021/03/20 10:58:37;;;;;;;4.53;3.97;;;;;;;;;;5085984;28;20652;-79
2021/03/20 11:01:05;;;;;;;5.67;4.10;;;;;;;;;;5078782;28;20226;-80
2021/03/20 11:03:36;;;;;;;6.33;4.47;;;;;;;;;;5087404;28;20579;-80
2021/03/20 11:06:13;;;;;;;6.83;4.33;;;;;;;;;;5069383;28;20222;-80
2021/03/20 11:08:42;;;;;;;5.50;4.60;;;;;;;;;;5081932;27;20217;-79
2021/03/20 11:11:17;;;;;;;7.27;5.83;;;;;;;;;;5116575;28;20206;-80
2021/03/20 11:13:46;;;;;;;5.90;4.43;;;;;;;;;;5110903;27;20213;-78
2021/03/20 11:16:16;;;;;;;5.07;4.10;;;;;;;;;;5087903;28;20229;-82
2021/03/20 11:18:46;;;;;;;5.30;4.57;;;;;;;;;;5091207;27;20237;-79
2021/03/20 11:21:22;;;;;;;4.17;3.77;;;;;;;;;;5082421;28;20602;-79
2021/03/20 11:23:58;;;;;;;4.73;3.80;;;;;;;;;;5081717;28;20217;-79
2021/03/20 11:26:38;;;;;;;4.90;4.00;;;;;;;;;;5068770;28;20712;-79
2021/03/20 11:29:08;;;;;;;3.60;3.27;;;;;;;;;;5079920;28;20225;-82
2021/03/20 11:31:41;;;;;;;3.30;3.00;;;;;;;;;;5071990;28;20431;-81
2021/03/20 11:34:09;;;;;;;3.63;3.33;;;;;;;;;;5070389;28;20267;-86
2021/03/20 11:36:37;;;;;;;3.93;3.40;;;;;;;;;;5073560;28;20234;-83
2021/03/20 11:39:08;;;;;;;4.00;3.40;;;;;;;;;;5060918;28;20538;-79
2021/03/20 11:41:38;;;;;;;3.40;3.10;;;;;;;;;;5072467;28;20229;-79
2021/03/20 11:44:10;;;;;;;4.37;3.97;;;;;;;;;;5073473;27;20234;-79
2021/03/20 11:46:48;;;;;;;3.97;3.67;;;;;;;;;;5068558;28;20232;-79
2021/03/20 11:49:22;;;;;;;3.73;3.43;;;;;;;;;;5082368;28;20229;-79
2021/03/20 11:51:51;;;;;;;2.93;2.70;;;;;;;;;;5087389;28;20232;-80
2021/03/20 11:54:28;;;;;;;2.93;2.73;;;;;;;;;;5064641;28;20725;-79
2021/03/20 11:56:59;;;;;;;3.40;2.73;;;;;;;;;;5061963;28;20239;-79
2021/03/20 11:59:35;;;;;;;3.00;2.80;;;;;;;;;;5070483;28;20237;-79
2021/03/20 12:02:04;;;;;;;3.33;3.03;;;;;;;;;;5093919;28;20225;-84
2021/03/20 12:04:33;;;;;;;4.17;3.13;;;;;;;;;;5090895;28;20755;-79
2021/03/20 12:07:20;;;;;;;3.83;3.10;;;;;;;;;;5082193;28;20229;-82
2021/03/20 12:09:48;;;;;;;3.43;3.13;;;;;;;;;;5089726;28;20221;-84
2021/03/20 12:12:16;;;;;;;3.67;3.30;;;;;;;;;;5091495;28;20229;-81
2021/03/20 12:14:45;;;;;;;3.43;3.13;;;;;;;;;;5096026;28;20252;-81
2021/03/20 12:17:19;;;;;;;3.87;3.57;;;;;;;;;;5087090;28;20233;-79
2021/03/20 12:19:53;;;;;;;3.67;3.38;;;;;;;;;;5090454;27;20225;-79
2021/03/20 12:22:48;;;;;;;4.20;3.90;;;;;;;;;;5104223;28;20702;-80
2021/03/20 12:25:23;;;;;;;3.88;3.58;;;;;;;;;;5061067;28;20593;-80
2021/03/20 12:27:53;;;;;;;3.47;3.17;;;;;;;;;;5102117;27;20228;-80
2021/03/20 12:30:26;;;;;;;4.53;4.13;;;;;;;;;;5091591;28;20233;-81
2021/03/20 12:32:54;;;;;;;3.70;3.40;;;;;;;;;;5091325;27;20692;-81
2021/03/20 12:35:41;;;;;;;3.70;3.40;;;;;;;;;;5096409;27;20222;-81
2021/03/20 12:38:28;;;;;;;4.20;3.90;;;;;;;;;;5091531;27;20224;-83
2021/03/20 12:40:58;;;;;;;4.00;3.70;;;;;;;;;;5086045;27;20236;-81
2021/03/20 12:43:31;;;;;;;4.25;3.92;;;;;;;;;;5101644;27;20226;-79
2021/03/20 12:46:00;;;;;;;4.20;3.90;;;;;;;;;;5084555;27;20234;-81
2021/03/20 12:48:28;;;;;;;3.65;3.40;;;;;;;;;;5101592;27;20230;-80
2021/03/20 12:51:02;;;;;;;4.50;4.10;;;;;;;;;;5090944;27;20221;-82
2021/03/20 12:53:29;;;;;;;4.10;3.80;;;;;;;;;;5103039;27;20230;-80
2021/03/20 12:55:57;;;;;;;3.55;3.25;;;;;;;;;;5094175;27;20702;-80
2021/03/20 12:58:24;;;;;;;4.22;3.85;;;;;;;;;;5104513;27;20232;-78
2021/03/20 13:00:53;;;;;;;3.90;3.60;;;;;;;;;;5095875;27;20214;-78
2021/03/20 13:03:21;;;;;;;4.72;3.45;;;;;;;;;;5104186;27;20225;-79
2021/03/20 13:05:48;;;;;;;3.78;3.45;;;;;;;;;;5078607;27;20227;-79
2021/03/20 13:08:16;;;;;;;4.00;3.70;;;;;;;;;;5117308;27;20226;-80
2021/03/20 13:10:44;;;;;;;4.68;3.60;;;;;;;;;;5091200;27;20229;-80
2021/03/20 13:13:11;;;;;;;3.70;3.40;;;;;;;;;;5112617;27;20244;-80
2021/03/20 13:15:39;;;;;;;3.45;3.17;;;;;;;;;;5097416;27;20226;-81
2021/03/20 13:18:07;;;;;;;4.30;3.90;;;;;;;;;;5088815;28;20821;-79
2021/03/20 13:20:47;;;;;;;3.70;3.40;;;;;;;;;;5100685;27;20230;-80
2021/03/20 13:23:18;;;;;;;3.10;2.90;;;;;;;;;;5085479;27;20701;-81
2021/03/20 13:25:45;;;;;;;3.58;3.30;;;;;;;;;;5098813;27;20218;-79
2021/03/20 13:28:14;;;;;;;3.40;3.10;;;;;;;;;;5095168;27;20330;-80
2021/03/20 13:30:45;;;;;;;3.22;3.03;;;;;;;;;;5102926;27;20222;-80
2021/03/20 13:33:14;;;;;;;3.92;3.53;;;;;;;;;;5086537;28;20238;-80
2021/03/20 13:35:44;;;;;;;3.28;3.08;;;;;;;;;;5095701;27;20225;-80
2021/03/20 13:38:13;;;;;;;4.38;3.58;;;;;;;;;;5097911;27;20226;-81
2021/03/20 13:40:42;;;;;;;4.10;3.67;;;;;;;;;;5081120;27;20225;-79
2021/03/20 13:43:10;;;;;;;3.80;3.13;;;;;;;;;;5112202;27;20229;-80
2021/03/20 13:45:39;;;;;;;3.30;3.00;;;;;;;;;;5108618;27;20234;-79
2021/03/20 13:48:07;;;;;;;3.20;2.90;;;;;;;;;;5117669;27;20231;-79
2021/03/20 13:50:37;;;;;;;3.70;3.40;;;;;;;;;;5105518;27;20230;-79
2021/03/20 13:53:11;;;;;;;4.22;3.83;;;;;;;;;;5079432;28;20256;-80
2021/03/20 13:55:39;;;;;;;3.67;3.37;;;;;;;;;;5096705;27;20679;-79
2021/03/20 13:58:06;;;;;;;3.77;3.47;;;;;;;;;;5110631;27;20225;-78
2021/03/20 14:00:34;;;;;;;3.50;3.20;;;;;;;;;;5108128;28;20240;-79
2021/03/20 14:03:02;;;;;;;5.37;4.87;;;;;;;;;;5099447;27;20236;-79
2021/03/20 14:05:30;;;;;;;4.00;3.70;;;;;;;;;;5105713;28;20441;-81
2021/03/20 14:07:58;;;;;;;3.40;3.10;;;;;;;;;;5130358;27;20224;-80
2021/03/20 14:10:28;;;;;;;3.40;3.10;;;;;;;;;;5108399;28;20322;-81
2021/03/20 14:12:56;;;;;;;3.67;3.37;;;;;;;;;;5090237;28;20233;-81
2021/03/20 14:15:27;;;;;;;4.83;3.27;;;;;;;;;;5101737;27;20718;-82
2021/03/20 14:17:55;;;;;;;4.07;3.40;;;;;;;;;;5098055;28;20222;-81
2021/03/20 14:20:26;;;;;;;6.70;3.80;;;;;;;;;;5092955;28;20221;-80
2021/03/20 14:22:54;;;;;;;3.10;2.90;;;;;;;;;;5081786;27;20230;-80
2021/03/20 14:25:23;;;;;;;4.67;3.70;;;;;;;;;;5093529;28;20236;-80
2021/03/20 14:27:51;;;;;;;4.57;3.00;;;;;;;;;;5100422;27;20628;-80
2021/03/20 14:30:20;;;;;;;3.60;3.30;;;;;;;;;;5078064;28;20323;-81
2021/03/20 14:32:59;;;;;;;4.10;3.33;;;;;;;;;;5103852;27;20561;-80
2021/03/20 14:35:28;;;;;;;3.80;3.40;;;;;;;;;;5102637;28;20234;-82
2021/03/20 14:37:56;;;;;;;4.23;3.73;;;;;;;;;;5104838;27;20236;-79
2021/03/20 14:40:26;;;;;;;4.20;3.80;;;;;;;;;;5099099;28;20232;-78
2021/03/20 14:42:54;;;;;;;4.27;3.87;;;;;;;;;;5090511;28;20699;-80
2021/03/20 14:45:22;;;;;;;5.13;3.53;;;;;;;;;;5106270;27;20729;-79
2021/03/20 14:47:50;;;;;;;3.80;3.40;;;;;;;;;;5104842;27;20625;-79
2021/03/20 14:50:25;;;;;;;4.43;3.40;;;;;;;;;;5085559;28;20614;-80
2021/03/20 14:52:56;;;;;;;4.13;3.73;;;;;;;;;;5104112;27;20720;-79
2021/03/20 14:55:25;;;;;;;5.50;3.30;;;;;;;;;;5108925;27;20222;-80
2021/03/20 14:57:53;;;;;;;3.20;2.90;;;;;;;;;;5091391;28;20229;-79
2021/03/20 15:00:24;;;;;;;3.40;3.10;;;;;;;;;;5104724;27;20225;-80
2021/03/20 15:02:52;;;;;;;2.90;2.70;;;;;;;;;;5096283;28;20617;-81
2021/03/20 15:05:22;;;;;;;3.70;3.40;;;;;;;;;;5084781;28;20237;-81
2021/03/20 15:07:51;;;;;;;4.87;3.20;;;;;;;;;;5104565;28;20225;-79